Reno, NV

9:47 PM PDT on July 31, 2015 (GMT -0700)
UNR Campus, LMR Roof | | Change Station
CLOSE
Current Station
Personal Weather Station
Location: Reno, NV
Elevation: 4570 ft
Nearby Weather Stations

Elev 4570 ft 39.54 °N, 119.81 °W | Updated 5 seconds ago

Mostly Cloudy
Mostly Cloudy
79.2 °F
Feels Like 79 °F
N
0.5
Wind Variable Wind from WNW
Gusts 0.0 mph

Today
High -- | Low -- °F
--% Chance of Precip.
Yesterday
High -- | Low -- °F
Precip. -- in
5:57 AM 8:12 PM
Full, 99% visible
Pressure 29.96 in
Visibility 10.0 miles
Clouds Few 10000 ft
Scattered Clouds 13000 ft
Mostly Cloudy 18000 ft
Heat Index 79 °F
Dew Point 42 °F
Humidity 27%
Rainfall 0.00 in
Snow Depth Not available.
UV 0 out of 12
Pollen 5.80 out of 12
Air Quality Not available.
Flu Activity Not available.
METAR KRNO 010355Z 30006KT 10SM FEW100 SCT130 BKN180 29/04 A3014 RMK AO2 SLP143 VIRGA T02890044

More Conditions Fewer Conditions

Pressure 29.96 in
Visibility 10.0 miles
Clouds Few 10000 ft
Scattered Clouds 13000 ft
Mostly Cloudy 18000 ft
Heat Index 79 °F
Dew Point 42 °F
Humidity 27%
Rainfall 0.00 in
Snow Depth Not available.
UV 0 out of 12
Pollen 5.80 out of 12
Air Quality Not available.
Flu Activity Not available.
METAR KRNO 010355Z 30006KT 10SM FEW100 SCT130 BKN180 29/04 A3014 RMK AO2 SLP143 VIRGA T02890044

More Conditions Fewer Conditions

10-Day Weather Forecast

×

Almanac

Astronomy

Jul. 31, 2015 Rise Set
Actual Time
Civil Twilight
Nautical Twilight
Astronomical Twilight
Moon
Length of Visible Light
Length of Day
Tomorrow will be .
, % of the Moon is Illuminated

Today's Extremes

State Highs State Lows

Community

WunderPhotos

Upload Photos

1,842,882 photos uploaded!

WunderBlogs® & News

Nearby

Air Quality

  Air Quality AQ Index Pollutant
Not available.

Snow Depth

Station Depth Elevation

Earthquake Activity

City Distance Mag. Time & Date
Minimum magnitude displayed is 2.5.

Coastal Water Temperatures

Place Temperature

Stations

Nearby Weather Stations

Station Location Temp. Windchill Dew Point Humidity Wind Precip. Elev Updated Type